createdAt,value
2018-05-21T00:00:32.154Z,2.50
2018-05-21T00:01:32.146Z,2.40
2018-05-21T00:02:32.142Z,2.30
2018-05-21T00:03:32.140Z,2.40
2018-05-21T00:04:32.136Z,2.50
2018-05-21T00:05:32.134Z,2.30
2018-05-21T00:06:32.132Z,2.50
2018-05-21T00:07:32.127Z,2.40
2018-05-21T00:08:32.127Z,2.30
2018-05-21T00:09:32.126Z,2.30
2018-05-21T00:10:32.121Z,2.60
2018-05-21T00:11:32.117Z,2.40
2018-05-21T00:12:32.115Z,2.40
2018-05-21T00:13:32.111Z,2.40
2018-05-21T00:14:32.111Z,2.30
2018-05-21T00:15:32.112Z,2.40
2018-05-21T00:16:32.104Z,2.40
2018-05-21T00:17:32.100Z,2.50
2018-05-21T00:18:32.098Z,2.50
2018-05-21T00:19:32.094Z,2.40
2018-05-21T00:20:32.092Z,2.40
2018-05-21T00:21:32.090Z,2.10
2018-05-21T00:22:32.086Z,2.40
2018-05-21T00:23:32.082Z,2.50
2018-05-21T00:24:32.082Z,2.30
2018-05-21T00:25:32.081Z,2.70
2018-05-21T00:26:32.077Z,2.50
2018-05-21T00:27:32.069Z,2.40
2018-05-21T00:28:32.072Z,2.50
2018-05-21T00:29:32.066Z,2.40
2018-05-21T00:30:32.060Z,2.30
2018-05-21T00:31:32.061Z,2.50
2018-05-21T00:32:32.056Z,2.40
2018-05-21T00:33:32.052Z,2.50
2018-05-21T00:34:32.054Z,2.50
2018-05-21T00:35:32.047Z,2.30
2018-05-21T00:36:32.046Z,2.70
2018-05-21T00:37:32.041Z,2.50
2018-05-21T00:38:32.042Z,2.60
2018-05-21T00:39:32.037Z,2.60
2018-05-21T00:40:32.033Z,2.30
2018-05-21T00:41:32.033Z,2.70
2018-05-21T00:42:32.034Z,2.60
2018-05-21T00:43:32.024Z,2.70
2018-05-21T00:44:32.022Z,2.70
2018-05-21T00:45:32.021Z,2.80
2018-05-21T00:46:32.024Z,2.70
2018-05-21T00:47:32.011Z,2.80
2018-05-21T00:48:32.010Z,2.90
2018-05-21T00:49:32.007Z,2.70
2018-05-21T00:50:32.008Z,2.70
2018-05-21T00:51:32.001Z,2.80
2018-05-21T00:52:31.999Z,3.00
2018-05-21T00:53:31.994Z,2.60
2018-05-21T00:54:31.994Z,2.80
2018-05-21T00:55:31.986Z,2.60
2018-05-21T00:56:31.984Z,2.60
2018-05-21T00:57:31.982Z,2.80
2018-05-21T00:58:32.028Z,2.60
2018-05-21T00:59:31.976Z,2.90
2018-05-21T01:00:31.973Z,2.50
2018-05-21T01:01:31.972Z,2.50
2018-05-21T01:02:31.969Z,2.70
2018-05-21T01:03:31.965Z,2.40
2018-05-21T01:04:31.969Z,2.90
2018-05-21T01:05:31.962Z,2.70
2018-05-21T01:06:31.959Z,2.80
2018-05-21T01:07:31.949Z,2.80
2018-05-21T01:08:31.949Z,2.90
2018-05-21T01:09:31.945Z,2.80
2018-05-21T01:10:31.942Z,2.70
2018-05-21T01:11:31.938Z,2.80
2018-05-21T01:12:31.936Z,2.80
2018-05-21T01:13:31.934Z,2.90
2018-05-21T01:14:31.927Z,2.80
2018-05-21T01:15:31.924Z,3.00
2018-05-21T01:16:31.923Z,2.90
2018-05-21T01:17:31.919Z,2.90
2018-05-21T01:18:31.918Z,2.70
2018-05-21T01:19:31.911Z,2.90
2018-05-21T01:20:31.909Z,2.90
2018-05-21T01:21:31.905Z,2.70
2018-05-21T01:22:31.903Z,2.60
2018-05-21T01:23:31.901Z,2.90
2018-05-21T01:24:31.891Z,3.00
2018-05-21T01:25:31.891Z,2.60
2018-05-21T01:26:31.889Z,2.90
2018-05-21T01:27:31.885Z,2.60
2018-05-21T01:28:31.889Z,2.70
2018-05-21T01:29:31.936Z,2.80
2018-05-21T01:30:31.876Z,2.90
2018-05-21T01:31:31.872Z,2.70
2018-05-21T01:32:31.868Z,3.00
2018-05-21T01:33:31.864Z,2.70
2018-05-21T01:34:31.862Z,2.80
2018-05-21T01:35:31.857Z,2.70
2018-05-21T01:36:31.855Z,2.80
2018-05-21T01:37:31.847Z,2.80
2018-05-21T01:38:31.847Z,2.60
2018-05-21T01:39:31.847Z,3.10
2018-05-21T01:40:31.841Z,2.60
2018-05-21T01:41:31.839Z,2.50
2018-05-21T01:42:31.838Z,2.50
2018-05-21T01:43:31.830Z,2.50
2018-05-21T01:44:31.828Z,2.50
2018-05-21T01:45:31.822Z,2.50
2018-05-21T01:46:31.819Z,2.60
2018-05-21T01:47:31.814Z,2.60
2018-05-21T01:48:31.819Z,2.30
2018-05-21T01:49:31.807Z,2.80
2018-05-21T01:50:31.808Z,2.70
2018-05-21T01:51:31.802Z,2.50
2018-05-21T01:52:31.796Z,2.50
2018-05-21T01:53:31.793Z,2.70
2018-05-21T01:54:31.793Z,2.50
2018-05-21T01:55:31.784Z,2.40
2018-05-21T01:56:31.782Z,2.40
2018-05-21T01:57:31.780Z,2.40
2018-05-21T01:58:31.773Z,2.40
2018-05-21T01:59:31.769Z,2.50
2018-05-21T02:00:31.766Z,2.40
2018-05-21T02:01:31.763Z,2.40
2018-05-21T02:02:31.759Z,2.60
2018-05-21T02:03:31.757Z,2.30
2018-05-21T02:04:31.749Z,2.40
2018-05-21T02:05:31.747Z,2.60
2018-05-21T02:06:31.743Z,2.40
2018-05-21T02:07:31.741Z,2.50
2018-05-21T02:08:31.769Z,2.60
2018-05-21T02:09:31.730Z,2.50
2018-05-21T02:10:31.729Z,2.60
2018-05-21T02:11:31.724Z,2.60
2018-05-21T02:12:31.720Z,2.30
2018-05-21T02:13:31.715Z,2.40
2018-05-21T02:14:31.711Z,2.50
2018-05-21T02:15:31.708Z,2.30
2018-05-21T02:16:31.702Z,2.50
2018-05-21T02:17:31.699Z,2.40
2018-05-21T02:18:31.699Z,2.40
2018-05-21T02:19:31.695Z,2.30
2018-05-21T02:20:31.688Z,2.40
2018-05-21T02:21:31.685Z,2.50
2018-05-21T02:22:31.681Z,2.40
2018-05-21T02:23:31.673Z,2.30
2018-05-21T02:24:31.672Z,2.30
2018-05-21T02:25:31.673Z,2.20
2018-05-21T02:26:31.667Z,2.20
2018-05-21T02:27:31.663Z,2.40
2018-05-21T02:28:31.656Z,2.30
2018-05-21T02:29:31.653Z,2.50
2018-05-21T02:30:31.655Z,2.40
2018-05-21T02:31:31.642Z,2.40
2018-05-21T02:32:31.641Z,2.20
2018-05-21T02:33:31.638Z,2.30
2018-05-21T02:34:31.633Z,2.40
2018-05-21T02:35:31.633Z,2.50
2018-05-21T02:36:31.624Z,2.50
2018-05-21T02:37:31.620Z,2.50
2018-05-21T02:38:31.618Z,2.10
2018-05-21T02:39:31.616Z,2.40
2018-05-21T02:40:31.614Z,2.60
2018-05-21T02:41:31.604Z,2.40
2018-05-21T02:42:31.600Z,2.20
2018-05-21T02:43:31.597Z,2.80
2018-05-21T02:44:31.590Z,2.60
2018-05-21T02:45:31.592Z,2.60
2018-05-21T02:46:31.585Z,2.40
2018-05-21T02:47:31.581Z,2.60
2018-05-21T02:48:31.576Z,2.50
2018-05-21T02:49:31.574Z,2.60
2018-05-21T02:50:31.572Z,2.50
2018-05-21T02:51:31.566Z,2.60
2018-05-21T02:52:31.558Z,2.50
2018-05-21T02:53:31.557Z,2.60
2018-05-21T02:54:31.554Z,2.50
2018-05-21T02:55:31.547Z,2.70
2018-05-21T02:56:31.545Z,2.40
2018-05-21T02:57:31.541Z,2.50
2018-05-21T02:58:31.537Z,2.40
2018-05-21T02:59:31.531Z,2.50
2018-05-21T03:00:31.534Z,2.40
2018-05-21T03:01:31.524Z,2.40
2018-05-21T03:02:31.520Z,2.30
2018-05-21T03:03:31.515Z,2.40
2018-05-21T03:04:31.510Z,2.50
2018-05-21T03:05:31.511Z,2.50
2018-05-21T03:06:31.502Z,2.40
2018-05-21T03:07:31.498Z,2.40
2018-05-21T03:08:31.500Z,2.40
2018-05-21T03:09:31.493Z,2.40
2018-05-21T03:10:31.485Z,2.30
2018-05-21T03:11:31.487Z,2.40
2018-05-21T03:12:31.479Z,2.60
2018-05-21T03:13:31.472Z,2.50
2018-05-21T03:14:31.469Z,2.30
2018-05-21T03:15:31.463Z,2.50
2018-05-21T03:16:31.462Z,2.50
2018-05-21T03:17:31.463Z,2.30
2018-05-21T03:18:31.451Z,2.50
2018-05-21T03:19:31.447Z,2.40
2018-05-21T03:20:31.446Z,2.40
2018-05-21T03:21:31.441Z,2.40
2018-05-21T03:22:31.440Z,2.50
2018-05-21T03:23:31.441Z,2.20
2018-05-21T03:24:31.427Z,2.50
2018-05-21T03:25:31.428Z,2.60
2018-05-21T03:26:31.420Z,2.50
2018-05-21T03:27:31.429Z,2.30
2018-05-21T03:28:31.411Z,2.50
2018-05-21T03:29:31.407Z,2.70
2018-05-21T03:30:31.408Z,2.40
2018-05-21T03:31:31.397Z,2.60
2018-05-21T03:32:31.393Z,2.50
2018-05-21T03:33:31.391Z,2.30
2018-05-21T03:34:31.388Z,2.40
2018-05-21T03:35:31.382Z,2.40
2018-05-21T03:36:31.379Z,2.40
2018-05-21T03:37:31.373Z,2.50
2018-05-21T03:38:31.370Z,2.30
2018-05-21T03:39:31.366Z,2.50
2018-05-21T03:40:31.360Z,2.40
2018-05-21T03:41:31.359Z,2.40
2018-05-21T03:42:31.352Z,2.50
2018-05-21T03:43:31.348Z,2.50
2018-05-21T03:44:31.346Z,2.30
2018-05-21T03:45:31.340Z,2.40
2018-05-21T03:46:31.336Z,2.60
2018-05-21T03:47:31.335Z,2.70
2018-05-21T03:48:31.324Z,2.80
2018-05-21T03:49:31.324Z,2.60
2018-05-21T03:50:31.320Z,2.40
2018-05-21T03:51:31.316Z,2.60
2018-05-21T03:52:31.312Z,2.70
2018-05-21T03:53:31.309Z,2.40
2018-05-21T03:54:31.305Z,2.60
2018-05-21T03:55:31.299Z,2.60
2018-05-21T03:56:31.297Z,2.50
2018-05-21T03:57:31.292Z,2.50
2018-05-21T03:58:31.290Z,2.50
2018-05-21T03:59:31.284Z,2.70
2018-05-21T04:00:31.282Z,2.50
2018-05-21T04:01:31.277Z,2.80
2018-05-21T04:02:31.277Z,2.70
2018-05-21T04:03:31.272Z,2.80
2018-05-21T04:04:31.276Z,2.70
2018-05-21T04:05:31.263Z,2.90
2018-05-21T04:06:31.261Z,2.70
2018-05-21T04:07:31.259Z,2.60
2018-05-21T04:08:31.253Z,2.60
2018-05-21T04:09:31.252Z,3.00
2018-05-21T04:10:31.250Z,2.80
2018-05-21T04:11:31.245Z,2.80
2018-05-21T04:12:31.242Z,2.80
2018-05-21T04:13:31.238Z,2.50
2018-05-21T04:14:31.238Z,2.90
2018-05-21T04:15:31.234Z,2.60
2018-05-21T04:16:31.235Z,2.60
2018-05-21T04:17:31.232Z,2.60
2018-05-21T04:18:31.227Z,2.80
2018-05-21T04:19:31.222Z,2.50
2018-05-21T04:20:31.220Z,2.60
2018-05-21T04:21:31.216Z,2.80
2018-05-21T04:22:31.215Z,3.00
2018-05-21T04:23:31.212Z,2.70
2018-05-21T04:24:31.210Z,2.70
2018-05-21T04:25:31.287Z,2.80
2018-05-21T04:26:31.204Z,2.70
2018-05-21T04:27:31.202Z,2.90
2018-05-21T04:28:31.205Z,2.90
2018-05-21T04:29:31.194Z,2.70
2018-05-21T04:30:31.197Z,3.00
2018-05-21T04:31:31.192Z,3.00
2018-05-21T04:32:31.191Z,2.90
2018-05-21T04:33:31.189Z,2.70
2018-05-21T04:34:31.199Z,2.80
2018-05-21T04:35:31.219Z,3.00
2018-05-21T04:36:31.235Z,2.80
2018-05-21T04:37:31.182Z,3.00
2018-05-21T04:38:31.180Z,2.70
2018-05-21T04:39:31.178Z,3.30
2018-05-21T04:40:31.180Z,2.90
2018-05-21T04:41:31.174Z,2.90
2018-05-21T04:42:31.174Z,2.80
2018-05-21T04:43:31.172Z,3.10
2018-05-21T04:44:31.169Z,3.20
2018-05-21T04:45:31.169Z,3.00
2018-05-21T04:46:31.168Z,3.10
2018-05-21T04:47:31.166Z,3.00
2018-05-21T04:48:31.165Z,2.90
2018-05-21T04:49:31.162Z,3.10
2018-05-21T04:50:31.228Z,3.10
2018-05-21T04:51:31.161Z,3.10
2018-05-21T04:52:31.159Z,2.90
2018-05-21T04:53:31.159Z,3.00
2018-05-21T04:54:31.160Z,3.00
2018-05-21T04:55:31.155Z,3.10
2018-05-21T04:56:31.155Z,3.00
2018-05-21T04:57:31.154Z,3.10
2018-05-21T04:58:31.154Z,3.20
2018-05-21T04:59:31.153Z,3.20
2018-05-21T05:00:31.154Z,3.10
2018-05-21T05:01:31.153Z,3.20
2018-05-21T05:02:31.151Z,3.30
2018-05-21T05:03:31.149Z,3.10
2018-05-21T05:04:31.151Z,3.10
2018-05-21T05:05:31.151Z,3.10
2018-05-21T05:06:31.151Z,3.20
2018-05-21T05:07:31.150Z,3.30
2018-05-21T05:08:31.157Z,3.20
2018-05-21T05:09:31.151Z,3.20
2018-05-21T05:10:31.152Z,3.60
2018-05-21T05:11:31.146Z,3.20
2018-05-21T05:12:31.152Z,3.20
2018-05-21T05:13:31.148Z,3.10
2018-05-21T05:14:31.151Z,3.20
2018-05-21T05:15:31.151Z,3.40
2018-05-21T05:16:31.149Z,3.60
2018-05-21T05:17:31.159Z,3.40
2018-05-21T05:18:31.154Z,3.30
2018-05-21T05:19:31.152Z,3.40
2018-05-21T05:20:31.149Z,3.30
2018-05-21T05:21:31.150Z,3.60
2018-05-21T05:22:31.153Z,3.50
2018-05-21T05:23:31.152Z,3.50
2018-05-21T05:24:31.147Z,3.10
2018-05-21T05:25:31.154Z,3.50
2018-05-21T05:26:31.176Z,3.30
2018-05-21T05:27:31.149Z,3.70
2018-05-21T05:28:31.150Z,3.70
2018-05-21T05:29:31.152Z,3.40
2018-05-21T05:30:31.154Z,3.50
2018-05-21T05:31:31.151Z,3.20
2018-05-21T05:32:31.151Z,3.50
2018-05-21T05:33:31.152Z,3.30
2018-05-21T05:34:31.152Z,3.60
2018-05-21T05:35:31.154Z,3.60
2018-05-21T05:36:31.153Z,3.40
2018-05-21T05:37:31.153Z,3.20
2018-05-21T05:38:31.155Z,3.40
2018-05-21T05:39:31.154Z,3.70
2018-05-21T05:40:31.155Z,3.70
2018-05-21T05:41:31.235Z,3.50
2018-05-21T05:42:31.155Z,3.60
2018-05-21T05:43:31.153Z,3.60
2018-05-21T05:44:31.155Z,3.30
2018-05-21T05:45:31.155Z,3.20
2018-05-21T05:46:31.158Z,3.30
2018-05-21T05:47:31.156Z,3.40
2018-05-21T05:48:31.156Z,3.50
2018-05-21T05:49:31.157Z,3.40
2018-05-21T05:50:31.157Z,3.30
2018-05-21T05:51:31.161Z,3.30
2018-05-21T05:52:31.159Z,3.30
2018-05-21T05:53:31.160Z,2.90
2018-05-21T05:54:31.164Z,3.30
2018-05-21T05:55:31.161Z,3.00
2018-05-21T05:56:31.164Z,3.10
2018-05-21T05:57:31.162Z,3.40
2018-05-21T05:58:31.167Z,3.00
2018-05-21T05:59:31.168Z,3.40
2018-05-21T06:00:31.166Z,2.90
2018-05-21T06:01:31.172Z,3.10
2018-05-21T06:02:31.167Z,3.30
2018-05-21T06:03:31.216Z,3.20
2018-05-21T06:04:31.170Z,3.10
2018-05-21T06:05:31.173Z,3.20
2018-05-21T06:06:31.174Z,3.20
2018-05-21T06:07:31.175Z,3.00
2018-05-21T06:08:31.175Z,3.10
2018-05-21T06:09:31.178Z,2.90
2018-05-21T06:10:31.181Z,3.10
2018-05-21T06:11:31.184Z,3.00
2018-05-21T06:12:31.181Z,3.20
2018-05-21T06:13:31.184Z,3.40
2018-05-21T06:14:31.185Z,3.10
2018-05-21T06:15:31.181Z,3.20
2018-05-21T06:16:31.191Z,2.90
2018-05-21T06:17:31.189Z,3.10
2018-05-21T06:18:31.191Z,3.00
2018-05-21T06:19:31.193Z,2.90
2018-05-21T06:20:31.193Z,3.10
2018-05-21T06:21:31.195Z,3.00
2018-05-21T06:22:31.200Z,2.90
2018-05-21T06:23:31.198Z,3.10
2018-05-21T06:24:31.202Z,3.00
2018-05-21T06:25:31.203Z,2.90
2018-05-21T06:26:31.205Z,3.00
2018-05-21T06:27:31.206Z,3.00
2018-05-21T06:28:31.210Z,2.80
2018-05-21T06:29:31.210Z,2.90
2018-05-21T06:30:31.212Z,2.90
2018-05-21T06:31:31.215Z,2.80
2018-05-21T06:32:31.217Z,2.80
2018-05-21T06:33:31.219Z,2.70
2018-05-21T06:34:31.263Z,2.90
2018-05-21T06:35:31.223Z,3.10
2018-05-21T06:36:31.227Z,3.20
2018-05-21T06:37:31.227Z,2.80
2018-05-21T06:38:31.234Z,2.70
2018-05-21T06:39:31.231Z,3.10
2018-05-21T06:40:31.234Z,2.80
2018-05-21T06:41:31.238Z,2.80
2018-05-21T06:42:31.242Z,2.70
2018-05-21T06:43:31.241Z,2.90
2018-05-21T06:44:31.268Z,2.80
2018-05-21T06:45:31.253Z,2.90
2018-05-21T06:46:31.251Z,2.60
2018-05-21T06:47:31.253Z,2.50
2018-05-21T06:48:31.253Z,2.80
2018-05-21T06:49:31.258Z,2.70
2018-05-21T06:50:31.263Z,2.60
2018-05-21T06:51:31.265Z,2.70
2018-05-21T06:52:31.268Z,2.70
2018-05-21T06:53:31.272Z,2.80
2018-05-21T06:54:31.273Z,2.70
2018-05-21T06:55:31.278Z,2.50
2018-05-21T06:56:31.279Z,2.70
2018-05-21T06:57:31.283Z,2.30
2018-05-21T06:58:31.288Z,2.70
2018-05-21T06:59:31.292Z,2.40
2018-05-21T07:00:31.295Z,2.30
2018-05-21T07:01:31.299Z,2.30
2018-05-21T07:02:31.304Z,2.60
2018-05-21T07:03:31.306Z,2.40
2018-05-21T07:04:31.309Z,2.50
2018-05-21T07:05:31.315Z,2.40
2018-05-21T07:06:31.326Z,2.20
2018-05-21T07:07:31.322Z,2.40
2018-05-21T07:08:31.328Z,2.50
2018-05-21T07:09:31.333Z,2.50
2018-05-21T07:10:31.337Z,2.50
2018-05-21T07:11:31.341Z,2.40
2018-05-21T07:12:31.346Z,2.30
2018-05-21T07:13:31.352Z,2.40
2018-05-21T07:14:31.357Z,2.60
2018-05-21T07:15:31.361Z,2.60
2018-05-21T07:16:31.365Z,2.30
2018-05-21T07:17:31.369Z,2.30
2018-05-21T07:18:31.379Z,2.30
2018-05-21T07:19:31.377Z,2.00
2018-05-21T07:20:31.384Z,2.30
2018-05-21T07:21:31.389Z,2.30
2018-05-21T07:22:31.398Z,2.20
2018-05-21T07:23:31.412Z,2.10
2018-05-21T07:24:31.473Z,2.10
2018-05-21T07:25:31.412Z,2.40
2018-05-21T07:26:31.424Z,2.30
2018-05-21T07:27:31.426Z,2.00
2018-05-21T07:28:31.426Z,2.30
2018-05-21T07:29:31.435Z,2.10
2018-05-21T07:30:31.442Z,2.10
2018-05-21T07:31:31.519Z,2.10
2018-05-21T07:32:31.447Z,2.30
2018-05-21T07:33:31.456Z,2.30
2018-05-21T07:34:31.461Z,2.30
2018-05-21T07:35:31.465Z,2.20
2018-05-21T07:36:31.495Z,2.00
2018-05-21T07:37:31.479Z,2.00
2018-05-21T07:38:31.479Z,2.10
2018-05-21T07:39:31.497Z,2.10
2018-05-21T07:40:31.497Z,2.10
2018-05-21T07:41:31.500Z,2.00
2018-05-21T07:42:31.508Z,2.10
2018-05-21T07:43:31.515Z,2.00
2018-05-21T07:44:31.520Z,2.10
2018-05-21T07:45:31.528Z,2.10
2018-05-21T07:46:31.583Z,1.90
2018-05-21T07:47:31.540Z,1.80
2018-05-21T07:48:31.545Z,2.20
2018-05-21T07:49:31.554Z,2.00
2018-05-21T07:50:31.562Z,1.90
2018-05-21T07:51:31.590Z,1.80
2018-05-21T07:52:31.574Z,1.90
2018-05-21T07:53:31.582Z,1.90
2018-05-21T07:54:31.588Z,1.70
2018-05-21T07:55:31.594Z,2.10
2018-05-21T07:56:31.604Z,1.80
2018-05-21T07:57:31.612Z,1.90
2018-05-21T07:58:31.619Z,1.70
2018-05-21T07:59:31.624Z,1.70
2018-05-21T08:00:31.630Z,2.00
2018-05-21T08:01:31.638Z,1.80
2018-05-21T08:02:31.652Z,1.90
2018-05-21T08:03:31.650Z,1.80
2018-05-21T08:04:31.658Z,1.80
2018-05-21T08:05:31.667Z,1.60
2018-05-21T08:06:31.676Z,1.90
2018-05-21T08:07:31.677Z,1.80
2018-05-21T08:08:31.693Z,1.90
2018-05-21T08:09:31.697Z,1.70
2018-05-21T08:10:31.704Z,1.80
2018-05-21T08:11:31.711Z,1.80
2018-05-21T08:12:31.715Z,1.80
2018-05-21T08:13:31.726Z,1.90
2018-05-21T08:14:31.832Z,1.80
2018-05-21T08:15:31.743Z,1.80
2018-05-21T08:16:31.751Z,1.80
2018-05-21T08:17:31.750Z,1.70
2018-05-21T08:18:31.760Z,1.80
2018-05-21T08:19:31.776Z,1.70
2018-05-21T08:20:31.783Z,1.60
2018-05-21T08:21:31.790Z,1.60
2018-05-21T08:22:31.795Z,1.70
2018-05-21T08:23:31.809Z,1.70
2018-05-21T08:24:31.808Z,1.60
2018-05-21T08:25:31.817Z,1.90
2018-05-21T08:26:31.825Z,1.80
2018-05-21T08:27:31.834Z,1.70
2018-05-21T08:28:31.842Z,1.60
2018-05-21T08:29:31.850Z,1.50
2018-05-21T08:30:31.855Z,1.80
2018-05-21T08:31:31.867Z,1.80
2018-05-21T08:32:31.891Z,1.70
2018-05-21T08:33:31.881Z,1.70
2018-05-21T08:34:31.888Z,1.60
2018-05-21T08:35:31.896Z,1.80
2018-05-21T08:36:31.906Z,1.80
2018-05-21T08:37:31.911Z,1.70
2018-05-21T08:38:31.921Z,1.80
2018-05-21T08:39:31.929Z,1.60
2018-05-21T08:40:31.939Z,1.80
2018-05-21T08:41:31.947Z,1.60
2018-05-21T08:42:31.951Z,1.70
2018-05-21T08:43:31.965Z,1.90
2018-05-21T08:44:31.972Z,1.90
2018-05-21T08:45:31.981Z,1.60
2018-05-21T08:46:31.991Z,1.60
2018-05-21T08:47:32.000Z,1.80
2018-05-21T08:48:32.122Z,1.80
2018-05-21T08:49:32.022Z,1.60
2018-05-21T08:50:32.019Z,1.70
2018-05-21T08:51:32.030Z,1.60
2018-05-21T08:52:32.039Z,1.70
2018-05-21T08:53:32.048Z,1.50
2018-05-21T08:54:32.055Z,1.80
2018-05-21T08:55:32.062Z,1.80
2018-05-21T08:56:32.217Z,1.70
2018-05-21T08:57:32.079Z,1.60
2018-05-21T08:58:32.086Z,1.70
2018-05-21T08:59:32.099Z,1.90
2018-05-21T09:00:32.191Z,1.60
2018-05-21T09:01:32.111Z,1.90
2018-05-21T09:02:32.119Z,1.70
2018-05-21T09:03:32.127Z,2.00
2018-05-21T09:04:32.130Z,1.90
2018-05-21T09:05:32.136Z,1.90
2018-05-21T09:06:32.141Z,1.80
2018-05-21T09:07:32.193Z,1.70
2018-05-21T09:08:32.161Z,1.80
2018-05-21T09:09:32.158Z,1.80
2018-05-21T09:10:32.163Z,2.00
2018-05-21T09:11:32.167Z,1.80
2018-05-21T09:12:32.192Z,1.90
2018-05-21T09:13:32.179Z,1.90
2018-05-21T09:14:32.183Z,1.90
2018-05-21T09:15:32.185Z,2.00
2018-05-21T09:16:32.239Z,1.80
2018-05-21T09:17:32.197Z,2.00
2018-05-21T09:18:32.200Z,1.70
2018-05-21T09:19:32.203Z,1.90
2018-05-21T09:20:32.207Z,1.80
2018-05-21T09:21:32.214Z,1.90
2018-05-21T09:22:32.220Z,1.70
2018-05-21T09:23:32.216Z,2.00
2018-05-21T09:24:32.222Z,2.10
2018-05-21T09:25:32.224Z,1.80
2018-05-21T09:26:32.228Z,1.70
2018-05-21T09:27:32.231Z,1.90
2018-05-21T09:28:32.234Z,1.90
2018-05-21T09:29:32.237Z,2.00
2018-05-21T09:30:32.239Z,2.00
2018-05-21T09:31:32.243Z,2.10
2018-05-21T09:32:32.310Z,1.90
2018-05-21T09:33:32.250Z,2.00
2018-05-21T09:34:32.252Z,2.10
2018-05-21T09:35:32.256Z,2.30
2018-05-21T09:36:32.258Z,2.00
2018-05-21T09:37:32.263Z,2.00
2018-05-21T09:38:32.264Z,1.80
2018-05-21T09:39:32.272Z,1.80
2018-05-21T09:40:32.269Z,1.90
2018-05-21T09:41:32.272Z,2.10
2018-05-21T09:42:32.276Z,2.00
2018-05-21T09:43:32.278Z,2.00
2018-05-21T09:44:32.279Z,2.10
2018-05-21T09:45:32.283Z,1.90
2018-05-21T09:46:32.288Z,1.80
2018-05-21T09:47:32.290Z,1.90
2018-05-21T09:48:32.293Z,1.90
2018-05-21T09:49:32.294Z,2.10
2018-05-21T09:50:32.299Z,2.00
2018-05-21T09:51:32.301Z,2.10
2018-05-21T09:52:32.304Z,2.00
2018-05-21T09:53:32.307Z,1.70
2018-05-21T09:54:32.312Z,2.00
2018-05-21T09:55:32.309Z,2.00
2018-05-21T09:56:32.313Z,1.80
2018-05-21T09:57:32.317Z,1.90
2018-05-21T09:58:32.320Z,2.00
2018-05-21T09:59:32.321Z,2.10
2018-05-21T10:00:32.325Z,2.00
2018-05-21T10:01:32.326Z,2.10
2018-05-21T10:02:32.337Z,2.00
2018-05-21T10:03:32.336Z,2.20
2018-05-21T10:04:32.333Z,2.00
2018-05-21T10:05:32.338Z,1.90
2018-05-21T10:06:32.339Z,2.00
2018-05-21T10:07:32.342Z,2.20
2018-05-21T10:08:32.347Z,2.00
2018-05-21T10:09:32.346Z,1.90
2018-05-21T10:10:32.349Z,2.20
2018-05-21T10:11:32.350Z,1.90
2018-05-21T10:12:32.353Z,2.10
2018-05-21T10:13:32.356Z,1.80
2018-05-21T10:14:32.361Z,2.00
2018-05-21T10:15:32.358Z,1.90
2018-05-21T10:16:32.383Z,2.00
2018-05-21T10:17:32.365Z,1.80
2018-05-21T10:18:32.367Z,2.00
2018-05-21T10:19:32.453Z,2.00
2018-05-21T10:20:32.374Z,2.10
2018-05-21T10:21:32.377Z,2.20
2018-05-21T10:22:32.378Z,2.00
2018-05-21T10:23:32.387Z,2.00
2018-05-21T10:24:32.385Z,1.90
2018-05-21T10:25:32.389Z,2.10
2018-05-21T10:26:32.389Z,1.90
2018-05-21T10:27:32.391Z,1.80
2018-05-21T10:28:32.395Z,2.10
2018-05-21T10:29:32.399Z,2.00
2018-05-21T10:30:32.400Z,1.90
2018-05-21T10:31:32.402Z,1.90
2018-05-21T10:32:32.403Z,2.00
2018-05-21T10:33:32.406Z,2.00
2018-05-21T10:34:32.413Z,2.00
2018-05-21T10:35:32.418Z,2.20
2018-05-21T10:36:32.418Z,2.00
2018-05-21T10:37:32.419Z,1.90
2018-05-21T10:38:32.422Z,1.90
2018-05-21T10:39:32.424Z,1.90
2018-05-21T10:40:32.428Z,2.10
2018-05-21T10:41:32.432Z,2.00
2018-05-21T10:42:32.433Z,1.90
2018-05-21T10:43:32.434Z,2.00
2018-05-21T10:44:32.439Z,2.10
2018-05-21T10:45:32.457Z,2.10
2018-05-21T10:46:32.445Z,2.00
2018-05-21T10:47:32.445Z,2.20
2018-05-21T10:48:32.448Z,2.20
2018-05-21T10:49:32.454Z,2.00
2018-05-21T10:50:32.455Z,2.30
2018-05-21T10:51:32.453Z,2.20
2018-05-21T10:52:32.458Z,2.10
2018-05-21T10:53:32.460Z,2.20
2018-05-21T10:54:32.463Z,2.20
2018-05-21T10:55:32.467Z,2.10
2018-05-21T10:56:32.468Z,2.30
2018-05-21T10:57:32.543Z,2.30
2018-05-21T10:58:32.471Z,2.10
2018-05-21T10:59:32.476Z,2.40
2018-05-21T11:00:32.486Z,2.20
2018-05-21T11:01:32.488Z,2.30
2018-05-21T11:02:32.481Z,2.30
2018-05-21T11:03:32.494Z,2.20
2018-05-21T11:04:32.506Z,2.30
2018-05-21T11:05:32.496Z,2.30
2018-05-21T11:06:32.497Z,2.40
2018-05-21T11:07:32.497Z,2.40
2018-05-21T11:08:32.500Z,2.50
2018-05-21T11:09:32.505Z,2.20
2018-05-21T11:10:32.505Z,2.40
2018-05-21T11:11:32.508Z,2.20
2018-05-21T11:12:32.512Z,2.30
2018-05-21T11:13:32.530Z,2.20
2018-05-21T11:14:32.517Z,2.10
2018-05-21T11:15:32.520Z,2.20
2018-05-21T11:16:32.523Z,2.40
2018-05-21T11:17:32.527Z,2.30
2018-05-21T11:18:32.535Z,2.30
2018-05-21T11:19:32.535Z,2.20
2018-05-21T11:20:32.538Z,2.50
2018-05-21T11:21:32.541Z,2.10
2018-05-21T11:22:32.541Z,2.20
2018-05-21T11:23:32.544Z,2.20
2018-05-21T11:24:32.628Z,2.40
2018-05-21T11:25:32.549Z,2.10
2018-05-21T11:26:32.554Z,2.30
2018-05-21T11:27:32.569Z,2.20
2018-05-21T11:28:32.558Z,2.10
2018-05-21T11:29:32.561Z,2.10
2018-05-21T11:30:32.564Z,2.10
2018-05-21T11:31:32.563Z,2.30
2018-05-21T11:32:32.569Z,2.40
2018-05-21T11:33:32.570Z,2.30
2018-05-21T11:34:32.577Z,2.20
2018-05-21T11:35:32.577Z,2.10
2018-05-21T11:36:32.579Z,2.30
2018-05-21T11:37:32.584Z,2.30
2018-05-21T11:38:32.586Z,2.20
2018-05-21T11:39:32.588Z,2.20
2018-05-21T11:40:32.592Z,2.30
2018-05-21T11:41:32.593Z,2.10
2018-05-21T11:42:32.599Z,2.30
2018-05-21T11:43:32.600Z,2.10
2018-05-21T11:44:32.603Z,2.00
2018-05-21T11:45:32.604Z,2.10
2018-05-21T11:46:32.609Z,2.10
2018-05-21T11:47:32.610Z,2.00
2018-05-21T11:48:32.612Z,1.90
2018-05-21T11:49:32.617Z,1.90
2018-05-21T11:50:32.635Z,2.00
2018-05-21T11:51:32.623Z,1.80
2018-05-21T11:52:32.630Z,2.00
2018-05-21T11:53:32.629Z,2.00
2018-05-21T11:54:32.631Z,2.00
2018-05-21T11:55:32.631Z,1.90
2018-05-21T11:56:32.639Z,1.90
2018-05-21T11:57:32.639Z,1.90
2018-05-21T11:58:32.642Z,2.00
2018-05-21T11:59:32.650Z,2.00
2018-05-21T12:00:32.649Z,1.90
2018-05-21T12:01:32.653Z,2.20
2018-05-21T12:02:32.703Z,2.00
2018-05-21T12:03:32.657Z,2.30
2018-05-21T12:04:32.659Z,2.10
2018-05-21T12:05:32.665Z,1.90
2018-05-21T12:06:32.671Z,1.90
2018-05-21T12:07:32.700Z,2.00
2018-05-21T12:08:32.671Z,2.00
2018-05-21T12:09:32.673Z,2.00
2018-05-21T12:10:32.677Z,1.80
2018-05-21T12:11:32.681Z,2.00
2018-05-21T12:12:32.682Z,1.90
2018-05-21T12:13:32.709Z,1.90
2018-05-21T12:14:32.690Z,2.00
2018-05-21T12:15:32.690Z,2.00
2018-05-21T12:16:32.695Z,1.90
2018-05-21T12:17:32.697Z,2.10
2018-05-21T12:18:32.701Z,1.70
2018-05-21T12:19:32.705Z,1.80
2018-05-21T12:20:32.707Z,2.00
2018-05-21T12:21:32.713Z,1.80
2018-05-21T12:22:32.711Z,1.90
2018-05-21T12:23:32.711Z,2.30
2018-05-21T12:24:32.717Z,2.00
2018-05-21T12:25:32.717Z,1.80
2018-05-21T12:26:32.724Z,2.10
2018-05-21T12:27:32.725Z,2.00
2018-05-21T12:28:32.730Z,2.00
2018-05-21T12:29:32.733Z,2.20
2018-05-21T12:30:32.737Z,2.10
2018-05-21T12:31:32.737Z,1.90
2018-05-21T12:32:32.741Z,1.90
2018-05-21T12:33:32.749Z,2.00
2018-05-21T12:34:32.752Z,2.00
2018-05-21T12:35:32.750Z,1.80
2018-05-21T12:36:32.756Z,1.80
2018-05-21T12:37:32.761Z,1.70
2018-05-21T12:38:32.767Z,1.80
2018-05-21T12:39:32.765Z,2.00
2018-05-21T12:40:32.768Z,2.00
2018-05-21T12:41:32.770Z,1.90
2018-05-21T12:42:32.775Z,1.90
2018-05-21T12:43:32.777Z,1.90
2018-05-21T12:44:32.780Z,2.00
2018-05-21T12:45:32.783Z,1.90
2018-05-21T12:46:32.786Z,1.80
2018-05-21T12:47:32.793Z,2.10
2018-05-21T12:48:32.793Z,2.10
2018-05-21T12:49:32.796Z,1.90
2018-05-21T12:50:32.801Z,1.80
2018-05-21T12:51:32.802Z,1.90
2018-05-21T12:52:32.803Z,1.90
2018-05-21T12:53:32.809Z,2.10
2018-05-21T12:54:32.817Z,1.80
2018-05-21T12:55:32.814Z,2.20
2018-05-21T12:56:32.820Z,2.00
2018-05-21T12:57:32.822Z,2.00
2018-05-21T12:58:32.827Z,1.90
2018-05-21T12:59:32.829Z,2.10
2018-05-21T13:00:32.832Z,2.00
2018-05-21T13:01:32.837Z,2.00
2018-05-21T13:02:32.840Z,2.00
2018-05-21T13:03:32.844Z,2.00
2018-05-21T13:04:32.846Z,2.40
2018-05-21T13:05:32.849Z,2.00
2018-05-21T13:06:32.862Z,2.00
2018-05-21T13:07:32.858Z,1.90
2018-05-21T13:08:32.861Z,2.10
2018-05-21T13:09:32.863Z,1.90
2018-05-21T13:10:32.868Z,2.00
2018-05-21T13:11:32.870Z,1.90
2018-05-21T13:12:32.876Z,2.00
2018-05-21T13:13:32.884Z,2.00
2018-05-21T13:14:32.881Z,2.00
2018-05-21T13:15:32.883Z,2.10
2018-05-21T13:16:32.887Z,2.00
2018-05-21T13:17:32.891Z,2.00
2018-05-21T13:18:32.897Z,1.80